sensor_id;sensor_type;location;lat;lon;timestamp;P1;durP1;ratioP1;P2;durP2;ratioP2
84275;SDS011;74432;51.212;3.254;2023-12-14T00:01:24;24.25;;;10.02;;
84275;SDS011;74432;51.212;3.254;2023-12-14T00:03:50;16.80;;;8.38;;
84275;SDS011;74432;51.212;3.254;2023-12-14T00:06:15;22.98;;;9.48;;
84275;SDS011;74432;51.212;3.254;2023-12-14T00:08:41;17.33;;;8.45;;
84275;SDS011;74432;51.212;3.254;2023-12-14T00:11:08;18.30;;;8.55;;
84275;SDS011;74432;51.212;3.254;2023-12-14T00:13:35;17.48;;;9.95;;
84275;SDS011;74432;51.212;3.254;2023-12-14T00:16:01;14.10;;;8.65;;
84275;SDS011;74432;51.212;3.254;2023-12-14T00:18:27;15.93;;;7.90;;
84275;SDS011;74432;51.212;3.254;2023-12-14T00:20:53;13.10;;;7.50;;
84275;SDS011;74432;51.212;3.254;2023-12-14T00:23:22;16.05;;;8.48;;
84275;SDS011;74432;51.212;3.254;2023-12-14T00:25:48;14.57;;;7.03;;
84275;SDS011;74432;51.212;3.254;2023-12-14T00:28:14;17.33;;;7.78;;
84275;SDS011;74432;51.212;3.254;2023-12-14T00:30:40;16.20;;;8.02;;
84275;SDS011;74432;51.212;3.254;2023-12-14T00:33:06;19.40;;;7.60;;
84275;SDS011;74432;51.212;3.254;2023-12-14T00:35:31;12.18;;;6.35;;
84275;SDS011;74432;51.212;3.254;2023-12-14T00:37:57;13.43;;;6.15;;
84275;SDS011;74432;51.212;3.254;2023-12-14T00:40:23;17.73;;;6.20;;
84275;SDS011;74432;51.212;3.254;2023-12-14T00:42:50;10.23;;;5.45;;
84275;SDS011;74432;51.212;3.254;2023-12-14T00:45:15;11.73;;;6.05;;
84275;SDS011;74432;51.212;3.254;2023-12-14T00:47:41;13.10;;;4.97;;
84275;SDS011;74432;51.212;3.254;2023-12-14T00:50:07;11.18;;;5.13;;
84275;SDS011;74432;51.212;3.254;2023-12-14T00:52:34;11.30;;;4.47;;
84275;SDS011;74432;51.212;3.254;2023-12-14T00:54:59;14.57;;;5.25;;
84275;SDS011;74432;51.212;3.254;2023-12-14T00:57:25;10.18;;;4.93;;
84275;SDS011;74432;51.212;3.254;2023-12-14T00:59:50;11.63;;;4.25;;
84275;SDS011;74432;51.212;3.254;2023-12-14T01:02:16;8.38;;;3.97;;
84275;SDS011;74432;51.212;3.254;2023-12-14T01:04:42;6.65;;;3.47;;
84275;SDS011;74432;51.212;3.254;2023-12-14T01:07:07;11.02;;;3.65;;
84275;SDS011;74432;51.212;3.254;2023-12-14T01:09:33;7.88;;;3.10;;
84275;SDS011;74432;51.212;3.254;2023-12-14T01:11:59;9.85;;;3.55;;
84275;SDS011;74432;51.212;3.254;2023-12-14T01:14:25;9.70;;;3.00;;
84275;SDS011;74432;51.212;3.254;2023-12-14T01:16:50;9.05;;;3.50;;
84275;SDS011;74432;51.212;3.254;2023-12-14T01:19:16;9.95;;;3.53;;
84275;SDS011;74432;51.212;3.254;2023-12-14T01:21:42;8.73;;;3.60;;
84275;SDS011;74432;51.212;3.254;2023-12-14T01:24:07;8.70;;;3.10;;
84275;SDS011;74432;51.212;3.254;2023-12-14T01:26:33;9.32;;;3.60;;
84275;SDS011;74432;51.212;3.254;2023-12-14T01:28:59;7.13;;;2.50;;
84275;SDS011;74432;51.212;3.254;2023-12-14T01:31:25;10.05;;;3.38;;
84275;SDS011;74432;51.212;3.254;2023-12-14T01:33:51;6.45;;;3.00;;
84275;SDS011;74432;51.212;3.254;2023-12-14T01:36:20;7.57;;;2.70;;
84275;SDS011;74432;51.212;3.254;2023-12-14T01:38:46;11.65;;;2.80;;
84275;SDS011;74432;51.212;3.254;2023-12-14T01:41:12;8.25;;;2.67;;
84275;SDS011;74432;51.212;3.254;2023-12-14T01:43:38;7.78;;;3.00;;
84275;SDS011;74432;51.212;3.254;2023-12-14T01:46:04;8.48;;;2.70;;
84275;SDS011;74432;51.212;3.254;2023-12-14T01:48:29;8.90;;;2.97;;
84275;SDS011;74432;51.212;3.254;2023-12-14T01:50:55;11.95;;;2.78;;
84275;SDS011;74432;51.212;3.254;2023-12-14T01:53:21;8.55;;;3.33;;
84275;SDS011;74432;51.212;3.254;2023-12-14T01:55:49;8.70;;;3.40;;
84275;SDS011;74432;51.212;3.254;2023-12-14T01:58:15;7.03;;;2.40;;
84275;SDS011;74432;51.212;3.254;2023-12-14T02:00:46;7.57;;;2.50;;
84275;SDS011;74432;51.212;3.254;2023-12-14T02:03:18;9.60;;;3.38;;
84275;SDS011;74432;51.212;3.254;2023-12-14T02:05:43;9.32;;;2.60;;
84275;SDS011;74432;51.212;3.254;2023-12-14T02:08:09;13.48;;;3.42;;
84275;SDS011;74432;51.212;3.254;2023-12-14T02:10:35;8.48;;;3.40;;
84275;SDS011;74432;51.212;3.254;2023-12-14T02:13:01;10.45;;;2.60;;
84275;SDS011;74432;51.212;3.254;2023-12-14T02:15:28;11.85;;;3.05;;
84275;SDS011;74432;51.212;3.254;2023-12-14T02:17:54;13.82;;;2.75;;
84275;SDS011;74432;51.212;3.254;2023-12-14T02:20:20;12.55;;;3.03;;
84275;SDS011;74432;51.212;3.254;2023-12-14T02:22:50;8.88;;;2.47;;
84275;SDS011;74432;51.212;3.254;2023-12-14T02:25:17;11.65;;;3.05;;
84275;SDS011;74432;51.212;3.254;2023-12-14T02:27:43;11.27;;;2.63;;
84275;SDS011;74432;51.212;3.254;2023-12-14T02:30:10;12.98;;;3.25;;
84275;SDS011;74432;51.212;3.254;2023-12-14T02:32:37;13.23;;;4.00;;
84275;SDS011;74432;51.212;3.254;2023-12-14T02:35:03;10.73;;;2.72;;
84275;SDS011;74432;51.212;3.254;2023-12-14T02:37:29;11.43;;;3.25;;
84275;SDS011;74432;51.212;3.254;2023-12-14T02:39:58;11.10;;;3.22;;
84275;SDS011;74432;51.212;3.254;2023-12-14T02:42:25;8.85;;;2.70;;
84275;SDS011;74432;51.212;3.254;2023-12-14T02:44:51;12.68;;;3.50;;
84275;SDS011;74432;51.212;3.254;2023-12-14T02:47:20;11.48;;;3.35;;
84275;SDS011;74432;51.212;3.254;2023-12-14T02:49:46;15.95;;;2.97;;
84275;SDS011;74432;51.212;3.254;2023-12-14T02:52:12;8.05;;;3.05;;
84275;SDS011;74432;51.212;3.254;2023-12-14T02:54:38;11.63;;;2.97;;
84275;SDS011;74432;51.212;3.254;2023-12-14T02:57:05;10.55;;;3.53;;
84275;SDS011;74432;51.212;3.254;2023-12-14T02:59:30;11.75;;;3.42;;
84275;SDS011;74432;51.212;3.254;2023-12-14T03:01:56;12.65;;;3.85;;
84275;SDS011;74432;51.212;3.254;2023-12-14T03:04:22;10.57;;;3.28;;
84275;SDS011;74432;51.212;3.254;2023-12-14T03:06:48;15.25;;;3.22;;
84275;SDS011;74432;51.212;3.254;2023-12-14T03:09:15;11.98;;;3.63;;
84275;SDS011;74432;51.212;3.254;2023-12-14T03:11:43;12.00;;;3.50;;
84275;SDS011;74432;51.212;3.254;2023-12-14T03:14:09;7.65;;;3.28;;
84275;SDS011;74432;51.212;3.254;2023-12-14T03:16:37;6.25;;;2.90;;
84275;SDS011;74432;51.212;3.254;2023-12-14T03:19:03;10.05;;;3.78;;
84275;SDS011;74432;51.212;3.254;2023-12-14T03:21:29;9.15;;;3.42;;
84275;SDS011;74432;51.212;3.254;2023-12-14T03:23:55;6.38;;;3.60;;
84275;SDS011;74432;51.212;3.254;2023-12-14T03:26:20;14.10;;;4.07;;
84275;SDS011;74432;51.212;3.254;2023-12-14T03:28:46;7.13;;;3.08;;
84275;SDS011;74432;51.212;3.254;2023-12-14T03:31:12;8.50;;;3.80;;
84275;SDS011;74432;51.212;3.254;2023-12-14T03:33:38;7.63;;;3.58;;
84275;SDS011;74432;51.212;3.254;2023-12-14T03:36:05;9.57;;;3.75;;
84275;SDS011;74432;51.212;3.254;2023-12-14T03:38:34;8.77;;;3.05;;
84275;SDS011;74432;51.212;3.254;2023-12-14T03:40:59;10.38;;;3.58;;
84275;SDS011;74432;51.212;3.254;2023-12-14T03:43:26;9.13;;;2.83;;
84275;SDS011;74432;51.212;3.254;2023-12-14T03:45:52;10.45;;;3.53;;
84275;SDS011;74432;51.212;3.254;2023-12-14T03:48:18;10.45;;;4.18;;
84275;SDS011;74432;51.212;3.254;2023-12-14T03:50:44;10.20;;;3.50;;
84275;SDS011;74432;51.212;3.254;2023-12-14T03:53:10;20.27;;;4.03;;
84275;SDS011;74432;51.212;3.254;2023-12-14T03:55:35;8.02;;;3.10;;
84275;SDS011;74432;51.212;3.254;2023-12-14T03:58:01;8.73;;;3.20;;
84275;SDS011;74432;51.212;3.254;2023-12-14T04:00:27;7.03;;;2.50;;
84275;SDS011;74432;51.212;3.254;2023-12-14T04:02:53;7.05;;;2.20;;
84275;SDS011;74432;51.212;3.254;2023-12-14T04:05:18;5.72;;;2.83;;
84275;SDS011;74432;51.212;3.254;2023-12-14T04:07:44;6.75;;;2.78;;
84275;SDS011;74432;51.212;3.254;2023-12-14T04:10:12;6.75;;;2.47;;
84275;SDS011;74432;51.212;3.254;2023-12-14T04:12:41;5.63;;;2.25;;
84275;SDS011;74432;51.212;3.254;2023-12-14T04:15:07;8.52;;;3.03;;
84275;SDS011;74432;51.212;3.254;2023-12-14T04:17:34;5.97;;;2.28;;
84275;SDS011;74432;51.212;3.254;2023-12-14T04:20:00;8.27;;;3.03;;
84275;SDS011;74432;51.212;3.254;2023-12-14T04:22:28;8.63;;;2.53;;
84275;SDS011;74432;51.212;3.254;2023-12-14T04:24:54;4.07;;;2.25;;
84275;SDS011;74432;51.212;3.254;2023-12-14T04:27:20;5.97;;;2.85;;
84275;SDS011;74432;51.212;3.254;2023-12-14T04:29:46;7.05;;;2.72;;
84275;SDS011;74432;51.212;3.254;2023-12-14T04:32:12;7.78;;;2.90;;
84275;SDS011;74432;51.212;3.254;2023-12-14T04:34:37;9.45;;;3.00;;
84275;SDS011;74432;51.212;3.254;2023-12-14T04:37:03;8.48;;;2.65;;
84275;SDS011;74432;51.212;3.254;2023-12-14T04:39:29;6.93;;;2.45;;
84275;SDS011;74432;51.212;3.254;2023-12-14T04:41:55;5.85;;;2.60;;
84275;SDS011;74432;51.212;3.254;2023-12-14T04:44:23;6.18;;;2.55;;
84275;SDS011;74432;51.212;3.254;2023-12-14T04:46:49;7.65;;;2.47;;
84275;SDS011;74432;51.212;3.254;2023-12-14T04:49:15;5.88;;;2.50;;
84275;SDS011;74432;51.212;3.254;2023-12-14T04:51:41;8.07;;;2.80;;
84275;SDS011;74432;51.212;3.254;2023-12-14T04:54:08;4.30;;;2.50;;
84275;SDS011;74432;51.212;3.254;2023-12-14T04:56:34;5.35;;;2.72;;
84275;SDS011;74432;51.212;3.254;2023-12-14T04:59:00;4.68;;;2.33;;
84275;SDS011;74432;51.212;3.254;2023-12-14T05:01:25;4.63;;;2.85;;
84275;SDS011;74432;51.212;3.254;2023-12-14T05:03:54;9.27;;;2.95;;
84275;SDS011;74432;51.212;3.254;2023-12-14T05:06:22;6.13;;;2.65;;
84275;SDS011;74432;51.212;3.254;2023-12-14T05:08:48;9.75;;;2.83;;
84275;SDS011;74432;51.212;3.254;2023-12-14T05:11:14;5.18;;;2.53;;
84275;SDS011;74432;51.212;3.254;2023-12-14T05:13:40;8.32;;;3.03;;
84275;SDS011;74432;51.212;3.254;2023-12-14T05:16:06;6.50;;;2.72;;
84275;SDS011;74432;51.212;3.254;2023-12-14T05:18:37;6.13;;;2.92;;
84275;SDS011;74432;51.212;3.254;2023-12-14T05:21:03;4.68;;;2.50;;
84275;SDS011;74432;51.212;3.254;2023-12-14T05:23:29;6.25;;;2.65;;
84275;SDS011;74432;51.212;3.254;2023-12-14T05:25:54;5.75;;;2.60;;
84275;SDS011;74432;51.212;3.254;2023-12-14T05:28:20;5.20;;;2.67;;
84275;SDS011;74432;51.212;3.254;2023-12-14T05:30:46;6.32;;;2.30;;
84275;SDS011;74432;51.212;3.254;2023-12-14T05:33:12;6.72;;;2.45;;
84275;SDS011;74432;51.212;3.254;2023-12-14T05:35:37;5.93;;;2.78;;
84275;SDS011;74432;51.212;3.254;2023-12-14T05:38:03;6.63;;;2.83;;
84275;SDS011;74432;51.212;3.254;2023-12-14T05:40:29;7.30;;;3.25;;
84275;SDS011;74432;51.212;3.254;2023-12-14T05:42:57;9.15;;;3.33;;
84275;SDS011;74432;51.212;3.254;2023-12-14T05:45:23;7.28;;;3.10;;
84275;SDS011;74432;51.212;3.254;2023-12-14T05:47:49;7.85;;;3.30;;
84275;SDS011;74432;51.212;3.254;2023-12-14T05:50:14;11.05;;;3.25;;
84275;SDS011;74432;51.212;3.254;2023-12-14T05:52:40;5.95;;;2.72;;
84275;SDS011;74432;51.212;3.254;2023-12-14T05:55:09;9.07;;;2.80;;
84275;SDS011;74432;51.212;3.254;2023-12-14T05:57:35;7.38;;;3.28;;
84275;SDS011;74432;51.212;3.254;2023-12-14T06:00:01;6.10;;;2.80;;
84275;SDS011;74432;51.212;3.254;2023-12-14T06:02:29;5.97;;;2.92;;
84275;SDS011;74432;51.212;3.254;2023-12-14T06:04:56;7.53;;;3.92;;
84275;SDS011;74432;51.212;3.254;2023-12-14T06:07:23;8.00;;;3.42;;
84275;SDS011;74432;51.212;3.254;2023-12-14T06:09:48;13.15;;;3.13;;
84275;SDS011;74432;51.212;3.254;2023-12-14T06:12:14;9.70;;;4.18;;
84275;SDS011;74432;51.212;3.254;2023-12-14T06:14:40;12.02;;;3.00;;
84275;SDS011;74432;51.212;3.254;2023-12-14T06:17:06;6.25;;;3.20;;
84275;SDS011;74432;51.212;3.254;2023-12-14T06:19:31;7.45;;;3.75;;
84275;SDS011;74432;51.212;3.254;2023-12-14T06:21:58;6.70;;;3.17;;
84275;SDS011;74432;51.212;3.254;2023-12-14T06:24:24;11.43;;;3.45;;
84275;SDS011;74432;51.212;3.254;2023-12-14T06:26:49;14.02;;;3.45;;
84275;SDS011;74432;51.212;3.254;2023-12-14T06:29:15;7.93;;;3.53;;
84275;SDS011;74432;51.212;3.254;2023-12-14T06:31:41;6.97;;;3.20;;
84275;SDS011;74432;51.212;3.254;2023-12-14T06:34:07;11.45;;;3.45;;
84275;SDS011;74432;51.212;3.254;2023-12-14T06:36:33;14.02;;;3.67;;
84275;SDS011;74432;51.212;3.254;2023-12-14T06:39:00;9.10;;;4.32;;
84275;SDS011;74432;51.212;3.254;2023-12-14T06:41:27;8.90;;;4.03;;
84275;SDS011;74432;51.212;3.254;2023-12-14T06:43:53;13.57;;;4.20;;
84275;SDS011;74432;51.212;3.254;2023-12-14T06:46:20;8.82;;;3.97;;
84275;SDS011;74432;51.212;3.254;2023-12-14T06:48:46;10.35;;;4.13;;
84275;SDS011;74432;51.212;3.254;2023-12-14T06:51:12;9.27;;;3.63;;
84275;SDS011;74432;51.212;3.254;2023-12-14T06:53:42;13.27;;;4.88;;
84275;SDS011;74432;51.212;3.254;2023-12-14T06:56:09;8.65;;;3.75;;
84275;SDS011;74432;51.212;3.254;2023-12-14T06:58:39;10.13;;;4.05;;
84275;SDS011;74432;51.212;3.254;2023-12-14T07:01:06;5.93;;;3.80;;
84275;SDS011;74432;51.212;3.254;2023-12-14T07:03:33;10.40;;;3.90;;
84275;SDS011;74432;51.212;3.254;2023-12-14T07:05:59;12.45;;;5.43;;
84275;SDS011;74432;51.212;3.254;2023-12-14T07:08:27;10.93;;;4.72;;
84275;SDS011;74432;51.212;3.254;2023-12-14T07:10:56;8.93;;;5.25;;
84275;SDS011;74432;51.212;3.254;2023-12-14T07:13:21;9.57;;;4.72;;
84275;SDS011;74432;51.212;3.254;2023-12-14T07:15:51;10.90;;;6.00;;
84275;SDS011;74432;51.212;3.254;2023-12-14T07:18:17;10.98;;;4.78;;
84275;SDS011;74432;51.212;3.254;2023-12-14T07:20:42;12.95;;;4.93;;
84275;SDS011;74432;51.212;3.254;2023-12-14T07:23:08;9.73;;;4.63;;
84275;SDS011;74432;51.212;3.254;2023-12-14T07:25:34;10.63;;;4.70;;
84275;SDS011;74432;51.212;3.254;2023-12-14T07:28:00;10.10;;;4.20;;
84275;SDS011;74432;51.212;3.254;2023-12-14T07:30:25;11.57;;;4.65;;
84275;SDS011;74432;51.212;3.254;2023-12-14T07:32:51;11.48;;;4.13;;
84275;SDS011;74432;51.212;3.254;2023-12-14T07:35:17;6.55;;;4.72;;
84275;SDS011;74432;51.212;3.254;2023-12-14T07:37:43;9.27;;;5.03;;
84275;SDS011;74432;51.212;3.254;2023-12-14T07:40:09;18.33;;;4.85;;
84275;SDS011;74432;51.212;3.254;2023-12-14T07:42:35;11.38;;;4.80;;
84275;SDS011;74432;51.212;3.254;2023-12-14T07:45:01;14.02;;;5.28;;
84275;SDS011;74432;51.212;3.254;2023-12-14T07:47:26;12.10;;;5.03;;
84275;SDS011;74432;51.212;3.254;2023-12-14T07:49:52;10.57;;;4.78;;
84275;SDS011;74432;51.212;3.254;2023-12-14T07:52:18;10.93;;;4.55;;
84275;SDS011;74432;51.212;3.254;2023-12-14T07:54:44;7.75;;;4.90;;
84275;SDS011;74432;51.212;3.254;2023-12-14T07:57:09;9.35;;;5.07;;
84275;SDS011;74432;51.212;3.254;2023-12-14T07:59:35;9.50;;;4.68;;
84275;SDS011;74432;51.212;3.254;2023-12-14T08:02:03;10.05;;;5.10;;
84275;SDS011;74432;51.212;3.254;2023-12-14T08:04:29;9.27;;;4.95;;
84275;SDS011;74432;51.212;3.254;2023-12-14T08:06:55;10.48;;;5.05;;
84275;SDS011;74432;51.212;3.254;2023-12-14T08:09:21;12.32;;;5.20;;
84275;SDS011;74432;51.212;3.254;2023-12-14T08:11:47;13.70;;;5.18;;
84275;SDS011;74432;51.212;3.254;2023-12-14T08:14:13;12.75;;;5.25;;
84275;SDS011;74432;51.212;3.254;2023-12-14T08:16:38;12.73;;;4.90;;
84275;SDS011;74432;51.212;3.254;2023-12-14T08:19:04;14.63;;;6.00;;
84275;SDS011;74432;51.212;3.254;2023-12-14T08:21:30;13.10;;;6.35;;
84275;SDS011;74432;51.212;3.254;2023-12-14T08:23:56;14.68;;;6.03;;
84275;SDS011;74432;51.212;3.254;2023-12-14T08:26:21;13.48;;;6.32;;
84275;SDS011;74432;51.212;3.254;2023-12-14T08:28:47;13.95;;;6.20;;
84275;SDS011;74432;51.212;3.254;2023-12-14T08:31:13;16.08;;;6.72;;
84275;SDS011;74432;51.212;3.254;2023-12-14T08:33:41;12.75;;;5.68;;
84275;SDS011;74432;51.212;3.254;2023-12-14T08:36:07;9.38;;;4.78;;
84275;SDS011;74432;51.212;3.254;2023-12-14T08:38:33;13.68;;;5.53;;
84275;SDS011;74432;51.212;3.254;2023-12-14T08:40:59;14.73;;;5.25;;
84275;SDS011;74432;51.212;3.254;2023-12-14T08:43:25;12.90;;;5.88;;
84275;SDS011;74432;51.212;3.254;2023-12-14T08:45:51;13.82;;;5.55;;
84275;SDS011;74432;51.212;3.254;2023-12-14T08:48:18;15.52;;;5.88;;
84275;SDS011;74432;51.212;3.254;2023-12-14T08:50:43;14.05;;;5.35;;
84275;SDS011;74432;51.212;3.254;2023-12-14T08:53:10;11.25;;;5.07;;
84275;SDS011;74432;51.212;3.254;2023-12-14T08:55:36;11.60;;;5.30;;
84275;SDS011;74432;51.212;3.254;2023-12-14T08:58:04;15.60;;;5.50;;
84275;SDS011;74432;51.212;3.254;2023-12-14T09:00:30;19.33;;;6.25;;
84275;SDS011;74432;51.212;3.254;2023-12-14T09:02:59;10.75;;;5.30;;
84275;SDS011;74432;51.212;3.254;2023-12-14T09:05:25;9.60;;;5.22;;
84275;SDS011;74432;51.212;3.254;2023-12-14T09:07:53;13.38;;;5.75;;
84275;SDS011;74432;51.212;3.254;2023-12-14T09:10:21;12.05;;;5.57;;
84275;SDS011;74432;51.212;3.254;2023-12-14T09:12:47;14.27;;;5.18;;
84275;SDS011;74432;51.212;3.254;2023-12-14T09:15:13;10.00;;;5.20;;
84275;SDS011;74432;51.212;3.254;2023-12-14T09:17:41;11.48;;;4.97;;
84275;SDS011;74432;51.212;3.254;2023-12-14T09:20:08;7.82;;;3.63;;
84275;SDS011;74432;51.212;3.254;2023-12-14T09:22:34;10.77;;;3.30;;
84275;SDS011;74432;51.212;3.254;2023-12-14T09:25:00;7.28;;;3.28;;
84275;SDS011;74432;51.212;3.254;2023-12-14T09:27:26;7.25;;;3.10;;
84275;SDS011;74432;51.212;3.254;2023-12-14T09:29:52;9.02;;;3.88;;
84275;SDS011;74432;51.212;3.254;2023-12-14T09:32:18;6.65;;;3.28;;
84275;SDS011;74432;51.212;3.254;2023-12-14T09:34:44;9.25;;;3.28;;
84275;SDS011;74432;51.212;3.254;2023-12-14T09:37:09;14.05;;;2.95;;
84275;SDS011;74432;51.212;3.254;2023-12-14T09:39:36;4.70;;;2.50;;
84275;SDS011;74432;51.212;3.254;2023-12-14T09:42:02;9.75;;;2.00;;
84275;SDS011;74432;51.212;3.254;2023-12-14T09:44:29;10.15;;;2.20;;
84275;SDS011;74432;51.212;3.254;2023-12-14T09:46:55;4.85;;;1.60;;
84275;SDS011;74432;51.212;3.254;2023-12-14T09:49:25;8.10;;;1.80;;
84275;SDS011;74432;51.212;3.254;2023-12-14T09:51:54;3.67;;;1.20;;
84275;SDS011;74432;51.212;3.254;2023-12-14T09:54:23;5.95;;;1.30;;
84275;SDS011;74432;51.212;3.254;2023-12-14T09:56:50;6.75;;;1.55;;
84275;SDS011;74432;51.212;3.254;2023-12-14T09:59:17;2.60;;;1.30;;
84275;SDS011;74432;51.212;3.254;2023-12-14T10:01:44;5.32;;;1.40;;
84275;SDS011;74432;51.212;3.254;2023-12-14T10:04:13;3.10;;;1.13;;
84275;SDS011;74432;51.212;3.254;2023-12-14T10:06:43;2.25;;;1.30;;
84275;SDS011;74432;51.212;3.254;2023-12-14T10:09:10;3.45;;;1.15;;
84275;SDS011;74432;51.212;3.254;2023-12-14T10:11:41;1.75;;;1.10;;
84275;SDS011;74432;51.212;3.254;2023-12-14T10:14:18;4.50;;;1.17;;
84275;SDS011;74432;51.212;3.254;2023-12-14T10:16:48;7.28;;;1.50;;
84275;SDS011;74432;51.212;3.254;2023-12-14T10:19:18;5.90;;;1.13;;
84275;SDS011;74432;51.212;3.254;2023-12-14T10:21:48;9.35;;;1.50;;
84275;SDS011;74432;51.212;3.254;2023-12-14T10:24:15;2.97;;;1.33;;
84275;SDS011;74432;51.212;3.254;2023-12-14T10:26:45;5.50;;;1.80;;
84275;SDS011;74432;51.212;3.254;2023-12-14T10:29:11;2.72;;;1.20;;
84275;SDS011;74432;51.212;3.254;2023-12-14T10:31:37;5.07;;;1.45;;
84275;SDS011;74432;51.212;3.254;2023-12-14T10:34:05;4.90;;;1.63;;
84275;SDS011;74432;51.212;3.254;2023-12-14T10:36:31;10.52;;;1.40;;
84275;SDS011;74432;51.212;3.254;2023-12-14T10:38:58;4.55;;;1.50;;
84275;SDS011;74432;51.212;3.254;2023-12-14T10:41:25;5.18;;;1.30;;
84275;SDS011;74432;51.212;3.254;2023-12-14T10:43:55;9.18;;;1.67;;
84275;SDS011;74432;51.212;3.254;2023-12-14T10:46:23;5.00;;;1.55;;
84275;SDS011;74432;51.212;3.254;2023-12-14T10:48:51;4.43;;;1.50;;
84275;SDS011;74432;51.212;3.254;2023-12-14T10:51:18;9.48;;;1.90;;
84275;SDS011;74432;51.212;3.254;2023-12-14T10:53:46;4.55;;;1.85;;
84275;SDS011;74432;51.212;3.254;2023-12-14T10:56:14;4.00;;;2.38;;
84275;SDS011;74432;51.212;3.254;2023-12-14T10:58:45;9.45;;;1.95;;
84275;SDS011;74432;51.212;3.254;2023-12-14T11:01:16;3.95;;;1.20;;
84275;SDS011;74432;51.212;3.254;2023-12-14T11:03:43;3.53;;;1.65;;
84275;SDS011;74432;51.212;3.254;2023-12-14T11:06:28;5.55;;;1.20;;
84275;SDS011;74432;51.212;3.254;2023-12-14T11:09:00;4.57;;;1.08;;
84275;SDS011;74432;51.212;3.254;2023-12-14T11:11:40;4.93;;;1.20;;
84275;SDS011;74432;51.212;3.254;2023-12-14T11:17:05;5.60;;;1.20;;
84275;SDS011;74432;51.212;3.254;2023-12-14T11:19:31;5.38;;;1.55;;
84275;SDS011;74432;51.212;3.254;2023-12-14T11:24:32;7.97;;;2.13;;
84275;SDS011;74432;51.212;3.254;2023-12-14T11:27:04;8.18;;;1.48;;
84275;SDS011;74432;51.212;3.254;2023-12-14T11:29:31;5.35;;;1.45;;
84275;SDS011;74432;51.212;3.254;2023-12-14T11:31:57;4.90;;;1.63;;
84275;SDS011;74432;51.212;3.254;2023-12-14T11:34:26;13.80;;;1.70;;
84275;SDS011;74432;51.212;3.254;2023-12-14T11:36:53;10.80;;;3.00;;
84275;SDS011;74432;51.212;3.254;2023-12-14T11:39:20;7.15;;;2.10;;
84275;SDS011;74432;51.212;3.254;2023-12-14T11:41:58;10.63;;;1.90;;
84275;SDS011;74432;51.212;3.254;2023-12-14T11:44:33;8.85;;;1.60;;
84275;SDS011;74432;51.212;3.254;2023-12-14T11:47:00;7.60;;;2.33;;
84275;SDS011;74432;51.212;3.254;2023-12-14T11:49:26;6.50;;;1.73;;
84275;SDS011;74432;51.212;3.254;2023-12-14T11:51:52;5.07;;;1.70;;
84275;SDS011;74432;51.212;3.254;2023-12-14T11:54:23;5.25;;;1.70;;
84275;SDS011;74432;51.212;3.254;2023-12-14T11:56:49;10.13;;;1.80;;
84275;SDS011;74432;51.212;3.254;2023-12-14T11:59:16;5.05;;;1.80;;
84275;SDS011;74432;51.212;3.254;2023-12-14T12:02:04;7.18;;;2.28;;
84275;SDS011;74432;51.212;3.254;2023-12-14T12:04:29;3.67;;;1.50;;
84275;SDS011;74432;51.212;3.254;2023-12-14T12:06:59;5.55;;;1.75;;
84275;SDS011;74432;51.212;3.254;2023-12-14T12:09:40;4.47;;;1.55;;
84275;SDS011;74432;51.212;3.254;2023-12-14T12:12:10;2.83;;;1.52;;
84275;SDS011;74432;51.212;3.254;2023-12-14T12:14:37;5.22;;;1.50;;
84275;SDS011;74432;51.212;3.254;2023-12-14T12:17:04;7.95;;;1.60;;
84275;SDS011;74432;51.212;3.254;2023-12-14T12:19:36;3.78;;;1.38;;
84275;SDS011;74432;51.212;3.254;2023-12-14T12:22:02;5.95;;;1.60;;
84275;SDS011;74432;51.212;3.254;2023-12-14T12:24:29;4.63;;;1.38;;
84275;SDS011;74432;51.212;3.254;2023-12-14T12:26:55;5.38;;;1.52;;
84275;SDS011;74432;51.212;3.254;2023-12-14T12:29:23;4.20;;;1.40;;
84275;SDS011;74432;51.212;3.254;2023-12-14T12:31:49;4.05;;;1.50;;
84275;SDS011;74432;51.212;3.254;2023-12-14T12:34:15;6.78;;;1.90;;
84275;SDS011;74432;51.212;3.254;2023-12-14T12:36:41;7.18;;;1.70;;
84275;SDS011;74432;51.212;3.254;2023-12-14T12:39:06;3.00;;;1.40;;
84275;SDS011;74432;51.212;3.254;2023-12-14T12:41:33;5.45;;;1.40;;
84275;SDS011;74432;51.212;3.254;2023-12-14T12:44:02;6.80;;;1.67;;
84275;SDS011;74432;51.212;3.254;2023-12-14T12:46:34;6.28;;;1.27;;
84275;SDS011;74432;51.212;3.254;2023-12-14T12:49:09;3.35;;;1.30;;
84275;SDS011;74432;51.212;3.254;2023-12-14T12:51:35;5.30;;;1.15;;
84275;SDS011;74432;51.212;3.254;2023-12-14T12:54:01;3.97;;;1.23;;
84275;SDS011;74432;51.212;3.254;2023-12-14T12:56:28;6.65;;;1.38;;
84275;SDS011;74432;51.212;3.254;2023-12-14T12:58:54;3.53;;;1.15;;
84275;SDS011;74432;51.212;3.254;2023-12-14T13:01:20;4.88;;;1.48;;
84275;SDS011;74432;51.212;3.254;2023-12-14T13:03:52;5.43;;;1.60;;
84275;SDS011;74432;51.212;3.254;2023-12-14T13:06:19;3.65;;;1.13;;
84275;SDS011;74432;51.212;3.254;2023-12-14T13:08:46;2.55;;;1.50;;
84275;SDS011;74432;51.212;3.254;2023-12-14T13:11:12;7.10;;;1.73;;
84275;SDS011;74432;51.212;3.254;2023-12-14T13:13:37;2.17;;;1.00;;
84275;SDS011;74432;51.212;3.254;2023-12-14T13:16:04;9.27;;;1.33;;
84275;SDS011;74432;51.212;3.254;2023-12-14T13:18:33;6.75;;;1.67;;
84275;SDS011;74432;51.212;3.254;2023-12-14T13:21:05;3.90;;;1.40;;
84275;SDS011;74432;51.212;3.254;2023-12-14T13:23:31;8.23;;;1.70;;
84275;SDS011;74432;51.212;3.254;2023-12-14T13:25:56;5.63;;;1.60;;
84275;SDS011;74432;51.212;3.254;2023-12-14T13:28:22;4.75;;;1.45;;
84275;SDS011;74432;51.212;3.254;2023-12-14T13:30:48;8.35;;;1.67;;
84275;SDS011;74432;51.212;3.254;2023-12-14T13:33:14;4.75;;;1.63;;
84275;SDS011;74432;51.212;3.254;2023-12-14T13:35:40;5.13;;;1.70;;
84275;SDS011;74432;51.212;3.254;2023-12-14T13:38:05;5.07;;;1.60;;
84275;SDS011;74432;51.212;3.254;2023-12-14T13:40:31;8.02;;;1.58;;
84275;SDS011;74432;51.212;3.254;2023-12-14T13:42:57;3.58;;;1.27;;
84275;SDS011;74432;51.212;3.254;2023-12-14T13:45:28;7.13;;;1.70;;
84275;SDS011;74432;51.212;3.254;2023-12-14T13:47:55;7.97;;;1.88;;
84275;SDS011;74432;51.212;3.254;2023-12-14T13:50:23;6.15;;;1.48;;
84275;SDS011;74432;51.212;3.254;2023-12-14T13:52:51;7.68;;;1.50;;
84275;SDS011;74432;51.212;3.254;2023-12-14T13:55:17;3.47;;;1.50;;
84275;SDS011;74432;51.212;3.254;2023-12-14T13:57:43;5.03;;;1.40;;
84275;SDS011;74432;51.212;3.254;2023-12-14T14:00:09;8.57;;;1.55;;
84275;SDS011;74432;51.212;3.254;2023-12-14T14:02:36;8.18;;;2.10;;
84275;SDS011;74432;51.212;3.254;2023-12-14T14:05:02;2.80;;;1.58;;
84275;SDS011;74432;51.212;3.254;2023-12-14T14:07:28;4.68;;;1.55;;
84275;SDS011;74432;51.212;3.254;2023-12-14T14:09:56;4.88;;;1.60;;
84275;SDS011;74432;51.212;3.254;2023-12-14T14:12:22;3.45;;;1.35;;
84275;SDS011;74432;51.212;3.254;2023-12-14T14:14:48;4.93;;;1.77;;
84275;SDS011;74432;51.212;3.254;2023-12-14T14:17:14;5.00;;;1.23;;
84275;SDS011;74432;51.212;3.254;2023-12-14T14:19:40;4.15;;;1.88;;
84275;SDS011;74432;51.212;3.254;2023-12-14T14:22:06;8.43;;;2.88;;
84275;SDS011;74432;51.212;3.254;2023-12-14T14:24:31;10.50;;;2.80;;
84275;SDS011;74432;51.212;3.254;2023-12-14T14:26:57;8.25;;;1.80;;
84275;SDS011;74432;51.212;3.254;2023-12-14T14:29:23;4.03;;;1.40;;
84275;SDS011;74432;51.212;3.254;2023-12-14T14:31:49;4.05;;;1.30;;
84275;SDS011;74432;51.212;3.254;2023-12-14T14:34:15;5.68;;;1.63;;
84275;SDS011;74432;51.212;3.254;2023-12-14T14:36:41;4.20;;;1.42;;
84275;SDS011;74432;51.212;3.254;2023-12-14T14:39:07;2.55;;;1.30;;
84275;SDS011;74432;51.212;3.254;2023-12-14T14:41:33;4.85;;;1.50;;
84275;SDS011;74432;51.212;3.254;2023-12-14T14:43:59;2.67;;;1.38;;
84275;SDS011;74432;51.212;3.254;2023-12-14T14:46:24;4.35;;;1.60;;